Share

Valley City, ND

NDDOT Buffalo ND 38 MP 10 (MND014) Elev 1437 ft | 47.02 °N, 97.56 °W | Change Station
Active Advisory: Wind Advisory

Current weather conditions updated 43 minutes ago

Clear
Clear
51 °F
Feels Like 51 °F
N
34
Wind Variable Wind from ESE
Gusts 38.0 mph
Sunrise 6:38 AM
Sunset 8:24 PM
Moon Waning Gibbous

Today is forecast to be Much Warmer than yesterday.

Pressure 30.01 in
Visibility 10.0 miles
Clouds Clear
Dew Point 26 °F
Humidity 38%
Rainfall -999.00 in
Snow Depth Not available.
UV 8 out of 16
Pollen 9.00 out of 12
Air Quality Not available.
Flu Activity Sporadic
METAR KJMS 181956Z AUTO 12025G37KT 10SM CLR 12/M01 A2998 RMK AO2 PK WND 11039/1924 SLP163 T01171006

More Conditions Fewer Conditions

Pressure 30.01 in
Visibility 10.0 miles
Clouds Clear
Dew Point 26 °F
Humidity 38%
Rainfall -999.00 in
Snow Depth Not available.
UV 8 out of 16
Pollen 9.00 out of 12
Air Quality Not available.
Flu Activity Sporadic
METAR KJMS 181956Z AUTO 12025G37KT 10SM CLR 12/M01 A2998 RMK AO2 PK WND 11039/1924 SLP163 T01171006

More Conditions Fewer Conditions

10-Day Weather Forecast

Almanac

Astronomy

Apr. 18, 2014 Rise Set
Actual Time 6:38 AM CDT 8:24 PM CDT
Civil Twilight 6:06 AM CDT 8:57 PM CDT
Nautical Twilight 5:27 AM CDT 9:36 PM CDT
Astronomical Twilight 4:44 AM CDT 10:19 PM CDT
Moon No Moon Rise 8:53 AM CDT
Length of Visible Light 14h 50m
Length of Day
13h 45m
Tomorrow will be 3m 10s longer.
Waning Gibbous, 85% of the Moon is Illuminated
Today
Waning Gibbous
Apr 22
Last Quarter
Apr 29
New
May 6
First Quarter
May 14
Full

Today's Extremes

State Highs State Lows

Community

  • What's for Lunch?
    What's for Lunch?
  • SUNRISE THROUGH THE TREES.
    SUNRISE THROUGH THE TREES.
  • Dog Wood Blossoms
    Dog Wood Blossoms
  • Morning Light
    Morning Light
  • New Day
    New Day

WunderPhotos

Upload Photos

1,702,495 photos uploaded!

WunderBlogs® & News

Nearby

Snow Depth

Station Depth Elevation
No new snow has been reported.

Coastal Water Temperatures

Place Temperature
No Stations Reporting

Earthquake Activity

City Distance Mag. Time & Date
No recent earthquake activity has been reported nearby.
Minimum magnitude displayed is 2.5.

Nearby Weather Stations

Station Location Temp. Dew Point Humidity Wind Precip. Elev Updated Type
Valley City State University, Valley City, ND 50.2 °F - 46% SSE  at  14.0 mph 0.00 in / hr 1220 ft 3:51 PM CDT Normal
NDDOT Buffalo ND 38 MP 10, Ayr, ND 51 °F 26 °F 38% ESE  at  34 mph 0.00 in / hr 1437 ft 3:10 PM CDT MADIS

Show More Stations Show Fewer Stations

What do you think?

We're not finished. Please let us know what you like, what you don't like, and what you are still missing.